»·PEaware :: N732KA KSAN-KVNY

N732KA :: KSAN-KVNY

FLIGHT INFORMATION

Flight Status: Arrived
Operator: Privately registered:
United States
More flights under this callsign
Pilot: Anonymous 30260 (30260)
Aircraft: BOEING 737-300
(B733)
More flights by this aircraft type
Origin: KSAN San Diego Intl-Lindbergh
United States
Destination: KVNY Van Nuys
United States
More flights between these airports :: More routes between these airports
Route: +CWARD2 LAX CANOG
File this flight plan on PilotEdge
Remarks:
Altitude:
(Current/Filed)
18,000ft
Speed:
(Current/Filed)
416kts
Departed: 14-Nov-20 05:06 PM
Arrived: 14-Nov-20 05:44 PM
Distance/Time
Traveled:
110nm/0:38
Distance/Time
To Go:
Arrived

Flight Plot

Page will automatically refresh every two minutes.

Flight plan parsing failed; only flown route is shown


Map Options




Map Legend


Flown Route
Filed Route
Departure Airport
Arrival Airport
Navaid (VOR, NDB)
Fix

Horizontal Profiles

Position Reports

Time Latitude Longitude Heading Altitude Ground
Speed
14-Nov-20 16:31 32.732063 -117.193350 285 20ft 0kts
14-Nov-20 16:32 32.732063 -117.193350 285 20ft 0kts
14-Nov-20 16:33 32.732063 -117.193350 285 20ft 0kts
14-Nov-20 16:34 32.732063 -117.193350 285 20ft 0kts
14-Nov-20 16:35 32.732063 -117.193350 285 20ft 0kts
14-Nov-20 16:36 32.732063 -117.193350 285 20ft 0kts
14-Nov-20 16:37 32.732063 -117.193350 285 20ft 0kts
14-Nov-20 16:38 32.732063 -117.193350 285 20ft 0kts
14-Nov-20 16:39 32.732063 -117.193350 285 20ft 0kts
14-Nov-20 16:40 32.732063 -117.193350 285 20ft 0kts
14-Nov-20 16:41 32.732063 -117.193350 285 20ft 0kts
14-Nov-20 16:42 32.732063 -117.193350 285 20ft 0kts
14-Nov-20 16:43 32.732063 -117.193350 285 20ft 0kts
14-Nov-20 16:44 32.732063 -117.193350 285 20ft 0kts
14-Nov-20 16:45 32.732063 -117.193350 285 20ft 0kts
14-Nov-20 16:46 32.732063 -117.193350 285 20ft 0kts
14-Nov-20 16:47 32.732063 -117.193350 285 20ft 0kts
14-Nov-20 16:48 32.732063 -117.193350 285 20ft 0kts
14-Nov-20 16:49 32.732063 -117.193350 285 20ft 0kts
14-Nov-20 16:50 32.732063 -117.193350 285 20ft 0kts
14-Nov-20 16:51 32.732063 -117.193350 285 20ft 0kts
14-Nov-20 16:52 32.732063 -117.193350 285 20ft 0kts
14-Nov-20 16:53 32.732063 -117.193350 285 20ft 0kts
14-Nov-20 16:54 32.731907 -117.192894 329 19ft 2kts
14-Nov-20 16:55 32.731630 -117.192918 30 19ft 0kts
14-Nov-20 16:56 32.731630 -117.192918 30 19ft 0kts
14-Nov-20 16:57 32.731630 -117.192918 30 19ft 0kts
14-Nov-20 16:58 32.731630 -117.192918 30 19ft 0kts
14-Nov-20 16:59 32.731630 -117.192918 30 19ft 0kts
14-Nov-20 17:00 32.731782 -117.192821 27 19ft 4kts
14-Nov-20 17:01 32.732847 -117.191020 105 19ft 10kts
14-Nov-20 17:02 32.731633 -117.185948 104 17ft 19kts
14-Nov-20 17:03 32.730048 -117.179478 106 18ft 19kts
14-Nov-20 17:04 32.730191 -117.175935 309 23ft 10kts
14-Nov-20 17:05 32.735432 -117.196960 289 212ft 163kts
14-Nov-20 17:06 32.757753 -117.244533 304 2806ft 188kts
14-Nov-20 17:07 32.789956 -117.302178 307 5446ft 221kts
14-Nov-20 17:08 32.820541 -117.350885 309 7369ft 258kts
14-Nov-20 17:09 32.866797 -117.422652 309 9828ft 281kts
14-Nov-20 17:10 32.923661 -117.510930 309 9948ft 356kts
14-Nov-20 17:11 32.985274 -117.606843 308 9984ft 359kts
14-Nov-20 17:12 33.047220 -117.703654 308 9992ft 358kts
14-Nov-20 17:13 33.119456 -117.786378 319 9983ft 358kts
14-Nov-20 17:14 33.197395 -117.861268 337 9977ft 357kts
14-Nov-20 17:15 33.295493 -117.887221 347 10001ft 359kts
14-Nov-20 17:16 33.388928 -117.914806 325 9406ft 323kts
14-Nov-20 17:17 33.453927 -117.975400 320 8639ft 271kts
14-Nov-20 17:18 33.511591 -118.029932 320 7406ft 264kts
14-Nov-20 17:19 33.570508 -118.085745 319 6055ft 266kts
14-Nov-20 17:20 33.629295 -118.141536 319 6003ft 268kts
14-Nov-20 17:21 33.681832 -118.191477 319 6000ft 266kts
14-Nov-20 17:22 33.739720 -118.246603 320 6000ft 264kts
14-Nov-20 17:23 33.797030 -118.301272 320 6001ft 262kts
14-Nov-20 17:24 33.854567 -118.356256 320 6004ft 263kts
14-Nov-20 17:25 33.912007 -118.411229 320 5793ft 264kts
14-Nov-20 17:26 33.975217 -118.455358 333 5194ft 266kts
14-Nov-20 17:27 34.042533 -118.492924 333 4988ft 268kts
14-Nov-20 17:28 34.102771 -118.526530 333 4996ft 270kts
14-Nov-20 17:29 34.170994 -118.564495 333 4992ft 273kts
14-Nov-20 17:30 34.241812 -118.585351 20 4983ft 265kts
14-Nov-20 17:31 34.309438 -118.579395 352 5012ft 219kts
14-Nov-20 17:32 34.364114 -118.590221 352 4990ft 193kts
14-Nov-20 17:33 34.417035 -118.600628 352 4988ft 192kts
14-Nov-20 17:34 34.469902 -118.610418 352 4994ft 190kts
14-Nov-20 17:35 34.496203 -118.569509 92 5022ft 196kts
14-Nov-20 17:36 34.487863 -118.505405 133 4994ft 197kts
14-Nov-20 17:37 34.433887 -118.502628 186 5106ft 208kts
14-Nov-20 17:38 34.378963 -118.506239 175 4520ft 182kts
14-Nov-20 17:39 34.329886 -118.501616 170 3508ft 172kts
14-Nov-20 17:40 34.281849 -118.497245 172 2464ft 162kts
14-Nov-20 17:41 34.238966 -118.493261 174 1362ft 143kts
14-Nov-20 17:42 34.204539 -118.489867 176 809ft 65kts
14-Nov-20 17:43 34.197057 -118.489764 271 809ft 13kts
14-Nov-20 17:44 34.197444 -118.490031 354 809ft 5kts
14-Nov-20 17:45 34.200570 -118.490332 355 809ft 14kts
14-Nov-20 17:46 34.202634 -118.491380 290 809ft 5kts
14-Nov-20 17:47 34.202648 -118.491672 272 809ft 0kts
14-Nov-20 17:48 34.202648 -118.491672 272 809ft 0kts
14-Nov-20 17:49 34.202648 -118.491672 272 809ft 0kts

Navigation Log

Ident Type
Flight plan parsing failed, navigation log unavailable